Saint Johns, Arizona
Current Conditions -  °F | °C
As of 1:54 AM on Thursday 27 Nov 2014 (Local Time) from KSJN Reporting Station
Clear Clear  
Wind Chill: 27°   Ceiling: Unl
Heat Index: 27°   Visibility: 10mi
Dew Point: 16°   Wind: 3mph
Humidity: 63%   Direction: 210°SSW
Pressure: 30.46"   Gusts: NA
Location:  34.51°N, 109.36°W
Report Text: KSJN 270854Z AUTO 21003KT 10SM CLR M03/M09 A3046 RMK AO2 SLP293 T10281089 51005
Loading
Personal Weather Stations






























Interactive Weather Map New forecast layout! Learn more

10-Day Weather Forecast

Advertisements
Track Severe Weather on mobile